createdAt,value
2022-11-12T00:02:14.715Z,23
2022-11-12T00:07:33.192Z,23
2022-11-12T00:12:51.954Z,23
2022-11-12T00:18:10.598Z,23
2022-11-12T00:23:28.795Z,23
2022-11-12T00:28:47.271Z,23
2022-11-12T00:34:05.322Z,23
2022-11-12T00:39:23.816Z,23
2022-11-12T00:44:42.855Z,23
2022-11-12T00:50:01.100Z,23
2022-11-12T00:55:19.311Z,23
2022-11-12T01:00:38.370Z,23
2022-11-12T01:05:57.123Z,23
2022-11-12T01:11:15.623Z,23
2022-11-12T01:16:34.390Z,23
2022-11-12T01:21:52.452Z,23
2022-11-12T01:27:10.662Z,23
2022-11-12T01:32:29.187Z,23
2022-11-12T01:37:47.511Z,23
2022-11-12T01:43:06.000Z,22.9
2022-11-12T01:48:25.955Z,23
2022-11-12T01:53:45.032Z,23
2022-11-12T01:59:03.529Z,23
2022-11-12T02:04:22.226Z,23
2022-11-12T02:09:40.559Z,23
2022-11-12T02:14:59.341Z,23
2022-11-12T02:20:18.311Z,23
2022-11-12T02:25:37.263Z,23
2022-11-12T02:30:55.754Z,23
2022-11-12T02:36:13.941Z,23
2022-11-12T02:41:32.282Z,23
2022-11-12T02:46:50.771Z,23
2022-11-12T02:52:09.542Z,23
2022-11-12T02:57:27.888Z,23
2022-11-12T03:02:46.101Z,23
2022-11-12T03:08:04.845Z,23
2022-11-12T03:13:22.903Z,23
2022-11-12T03:18:41.678Z,23
2022-11-12T03:24:00.420Z,23.1
2022-11-12T03:29:18.782Z,23.1
2022-11-12T03:34:37.279Z,23.1
2022-11-12T03:39:55.679Z,23.1
2022-11-12T03:45:14.109Z,23.1
2022-11-12T03:50:32.310Z,23.1
2022-11-12T03:55:51.011Z,23.1
2022-11-12T04:01:09.414Z,23.1
2022-11-12T04:06:28.005Z,23.1
2022-11-12T04:11:46.722Z,23.1
2022-11-12T04:17:05.083Z,23.1
2022-11-12T04:22:23.292Z,23.1
2022-11-12T04:27:42.040Z,23.1
2022-11-12T04:33:00.651Z,23.1
2022-11-12T04:38:19.422Z,23.1
2022-11-12T04:43:37.543Z,23.1
2022-11-12T04:48:55.866Z,23.1
2022-11-12T04:54:13.804Z,23.1
2022-11-12T04:59:32.490Z,23.1
2022-11-12T05:04:51.029Z,23.1
2022-11-12T05:10:09.267Z,23.1
2022-11-12T05:15:28.036Z,23.1
2022-11-12T05:20:46.947Z,23.1
2022-11-12T05:26:05.444Z,23.1
2022-11-12T05:31:23.946Z,23.1
2022-11-12T05:36:41.921Z,23.1
2022-11-12T05:42:14.623Z,23.1
2022-11-12T05:47:33.069Z,23.1
2022-11-12T05:52:51.062Z,23.1
2022-11-12T05:58:09.854Z,23.2
2022-11-12T06:03:28.569Z,23.2
2022-11-12T06:08:47.169Z,23.2
2022-11-12T06:14:05.665Z,23.2
2022-11-12T06:19:24.175Z,23.3
2022-11-12T06:24:42.164Z,23.3
2022-11-12T06:30:00.368Z,23.3
2022-11-12T06:35:18.859Z,23.4
2022-11-12T06:40:37.774Z,23.4
2022-11-12T06:45:56.254Z,23.4
2022-11-12T06:51:14.759Z,23.4
2022-11-12T06:56:33.033Z,23.4
2022-11-12T07:01:51.369Z,23.4
2022-11-12T07:07:11.766Z,23.4
2022-11-12T07:12:30.504Z,23.4
2022-11-12T07:17:48.999Z,23.4
2022-11-12T07:23:07.674Z,23.4
2022-11-12T07:28:10.669Z,23.4
2022-11-12T07:33:28.892Z,23.4
2022-11-12T07:38:47.628Z,23.4
2022-11-12T07:44:05.932Z,23.4
2022-11-12T07:49:08.516Z,23.4
2022-11-12T07:54:27.217Z,23.4
2022-11-12T07:59:47.030Z,23.4
2022-11-12T08:05:16.475Z,23.4
2022-11-12T08:10:39.499Z,23.4
2022-11-12T08:15:58.036Z,23.4
2022-11-12T08:21:16.232Z,23.4
2022-11-12T08:26:35.238Z,23.4
2022-11-12T08:31:53.611Z,23.4
2022-11-12T08:37:11.538Z,23.4
2022-11-12T08:42:30.546Z,23.3
2022-11-12T08:47:54.740Z,23.4
2022-11-12T08:53:13.511Z,23.4
2022-11-12T08:58:32.322Z,23.4
2022-11-12T09:03:51.243Z,23.4
2022-11-12T09:09:10.025Z,23.5
2022-11-12T09:14:28.444Z,23.6
2022-11-12T09:19:47.048Z,23.6
2022-11-12T09:25:05.541Z,23.7
2022-11-12T09:30:23.966Z,23.8
2022-11-12T09:35:42.330Z,23.7
2022-11-12T09:41:01.093Z,23.7
2022-11-12T09:46:28.435Z,23.6
2022-11-12T09:51:46.993Z,23.6
2022-11-12T09:57:05.474Z,23.6
2022-11-12T10:02:24.545Z,23.5
2022-11-12T10:07:42.623Z,23.5
2022-11-12T10:13:01.102Z,23.5
2022-11-12T10:18:19.504Z,23.5
2022-11-12T10:23:38.027Z,23.4
2022-11-12T10:28:56.541Z,23.4
2022-11-12T10:34:15.545Z,23.4
2022-11-12T10:39:34.180Z,23.4
2022-11-12T10:44:52.431Z,23.4
2022-11-12T10:50:10.971Z,23.4
2022-11-12T10:55:29.306Z,23.3
2022-11-12T11:00:47.808Z,23.3
2022-11-12T11:06:06.271Z,23.4
2022-11-12T11:11:24.794Z,23.4
2022-11-12T11:16:43.005Z,23.3
2022-11-12T11:22:01.416Z,23.3
2022-11-12T11:27:19.881Z,23.3
2022-11-12T11:32:38.177Z,23.3
2022-11-12T11:37:58.981Z,23.3
2022-11-12T11:43:17.560Z,23.4
2022-11-12T11:48:35.755Z,23.4
2022-11-12T11:53:54.217Z,23.4
2022-11-12T11:59:12.474Z,23.3
2022-11-12T12:04:30.676Z,23.3
2022-11-12T12:09:49.702Z,23.3
2022-11-12T12:14:53.311Z,23.3
2022-11-12T12:20:12.698Z,23.3
2022-11-12T12:25:16.945Z,23.3
2022-11-12T12:30:36.215Z,23.3
2022-11-12T12:35:54.573Z,23.3
2022-11-12T12:41:13.043Z,23.2
2022-11-12T12:46:31.378Z,23.2
2022-11-12T12:51:56.155Z,23.2
2022-11-12T12:57:14.985Z,23.2
2022-11-12T13:02:33.854Z,23.2
2022-11-12T13:07:52.064Z,23.2
2022-11-12T13:13:10.316Z,23.2
2022-11-12T13:18:28.873Z,23.2
2022-11-12T13:23:47.171Z,23.2
2022-11-12T13:29:05.716Z,23.2
2022-11-12T13:34:24.344Z,23.2
2022-11-12T13:39:26.939Z,23.2
2022-11-12T13:44:30.271Z,23.2
2022-11-12T13:49:48.634Z,23.2
2022-11-12T13:55:07.126Z,23.2
2022-11-12T14:00:25.554Z,23.2
2022-11-12T14:05:43.842Z,23.2
2022-11-12T14:11:02.356Z,23.2
2022-11-12T14:16:21.176Z,23.2
2022-11-12T14:21:39.733Z,23.2
2022-11-12T14:26:58.476Z,23.2
2022-11-12T14:32:17.156Z,23.2
2022-11-12T14:37:43.539Z,23.3
2022-11-12T14:42:46.883Z,23.2
2022-11-12T14:48:05.602Z,23.3
2022-11-12T14:53:26.415Z,23.3
2022-11-12T14:58:45.541Z,23.3
2022-11-12T15:04:04.279Z,23.3
2022-11-12T15:09:23.116Z,23.3
2022-11-12T15:14:41.603Z,23.3
2022-11-12T15:20:01.291Z,23.3
2022-11-12T15:25:20.663Z,23.3
2022-11-12T15:30:38.603Z,23.4
2022-11-12T15:35:41.728Z,23.4
2022-11-12T15:41:00.408Z,23.4
2022-11-12T15:46:19.175Z,23.4
2022-11-12T15:51:37.590Z,23.4
2022-11-12T15:56:56.203Z,23.4
2022-11-12T16:02:14.991Z,23.4
2022-11-12T16:07:33.694Z,23.4
2022-11-12T16:12:52.367Z,23.4
2022-11-12T16:18:10.842Z,23.4
2022-11-12T16:23:30.494Z,23.4
2022-11-12T16:28:48.624Z,23.5
2022-11-12T16:34:07.089Z,23.5
2022-11-12T16:39:25.849Z,23.5
2022-11-12T16:44:44.485Z,23.5
2022-11-12T16:50:03.249Z,23.5
2022-11-12T16:55:21.886Z,23.5
2022-11-12T17:00:40.438Z,23.5
2022-11-12T17:05:59.163Z,23.5
2022-11-12T17:11:17.883Z,23.4
2022-11-12T17:16:36.216Z,23.4
2022-11-12T17:21:54.980Z,23.4
2022-11-12T17:27:13.938Z,23.4
2022-11-12T17:32:32.614Z,23.4
2022-11-12T17:37:51.385Z,23.4
2022-11-12T17:43:10.020Z,23.4
2022-11-12T17:48:28.356Z,23.4
2022-11-12T17:53:46.860Z,23.4
2022-11-12T17:59:05.097Z,23.3
2022-11-12T18:04:25.104Z,23.3
2022-11-12T18:09:48.758Z,23.3
2022-11-12T18:15:06.947Z,23.3
2022-11-12T18:20:25.567Z,23.3
2022-11-12T18:25:44.337Z,23.3
2022-11-12T18:31:02.547Z,23.3
2022-11-12T18:36:21.109Z,23.3
2022-11-12T18:41:39.597Z,23.3
2022-11-12T18:46:58.640Z,23.3
2022-11-12T18:52:16.946Z,23.2
2022-11-12T18:57:35.434Z,23.2
2022-11-12T19:02:53.886Z,23.2
2022-11-12T19:08:12.354Z,23.2
2022-11-12T19:13:31.510Z,23.2
2022-11-12T19:18:49.669Z,23.2
2022-11-12T19:24:07.981Z,23.2
2022-11-12T19:29:26.463Z,23.2
2022-11-12T19:34:45.087Z,23.2
2022-11-12T19:40:03.437Z,23.2
2022-11-12T19:45:21.929Z,23.2
2022-11-12T19:50:40.951Z,23.2
2022-11-12T19:55:59.043Z,23.2
2022-11-12T20:01:17.810Z,23.2
2022-11-12T20:06:36.434Z,23.1
2022-11-12T20:11:55.162Z,23.1
2022-11-12T20:17:13.648Z,23.1
2022-11-12T20:22:33.325Z,23.1
2022-11-12T20:27:52.086Z,23.1
2022-11-12T20:33:10.850Z,23.2
2022-11-12T20:38:30.315Z,23.2
2022-11-12T20:43:48.988Z,23.1
2022-11-12T20:49:07.773Z,23.2
2022-11-12T20:54:26.576Z,23.2
2022-11-12T20:59:45.217Z,23.2
2022-11-12T21:05:03.496Z,23.2
2022-11-12T21:10:22.205Z,23.1
2022-11-12T21:15:40.321Z,23.1
2022-11-12T21:20:59.091Z,23.1
2022-11-12T21:26:17.844Z,23.2
2022-11-12T21:31:36.423Z,23.2
2022-11-12T21:36:54.911Z,23.2
2022-11-12T21:42:13.376Z,23.2
2022-11-12T21:47:31.646Z,23.2
2022-11-12T21:52:50.407Z,23.1
2022-11-12T21:58:08.840Z,23.2
2022-11-12T22:03:27.795Z,23.2
2022-11-12T22:08:45.728Z,23.2
2022-11-12T22:14:04.190Z,23.2
2022-11-12T22:19:22.503Z,23.2
2022-11-12T22:24:41.283Z,23.2
2022-11-12T22:29:59.781Z,23.2
2022-11-12T22:35:18.391Z,23.3
2022-11-12T22:40:36.878Z,23.2
2022-11-12T22:45:55.388Z,23.2
2022-11-12T22:51:13.989Z,23.3
2022-11-12T22:56:32.466Z,23.3
2022-11-12T23:01:51.432Z,23.3
2022-11-12T23:07:10.251Z,23.3
2022-11-12T23:12:28.730Z,23.3
2022-11-12T23:17:47.427Z,23.3
2022-11-12T23:23:05.459Z,23.3
2022-11-12T23:28:23.950Z,23.3
2022-11-12T23:33:43.009Z,23.3
2022-11-12T23:39:01.849Z,23.3
2022-11-12T23:44:20.055Z,23.3
2022-11-12T23:49:22.842Z,23.3
2022-11-12T23:54:41.404Z,23.2
